createdAt,value
2018-12-14T00:00:29.909Z,44.03
2018-12-14T00:03:13.069Z,38.63
2018-12-14T00:05:57.380Z,39.90
2018-12-14T00:08:39.386Z,36.97
2018-12-14T00:11:21.195Z,39.00
2018-12-14T00:14:04.389Z,39.40
2018-12-14T00:16:46.403Z,35.85
2018-12-14T00:19:28.351Z,40.60
2018-12-14T00:22:10.311Z,39.27
2018-12-14T00:24:52.347Z,37.48
2018-12-14T00:27:33.803Z,37.98
2018-12-14T00:30:15.631Z,42.35
2018-12-14T00:32:57.578Z,43.63
2018-12-14T00:35:39.610Z,36.17
2018-12-14T00:38:21.128Z,38.38
2018-12-14T00:41:02.980Z,38.58
2018-12-14T00:43:44.369Z,41.15
2018-12-14T00:46:25.718Z,41.48
2018-12-14T00:49:07.541Z,35.40
2018-12-14T00:51:49.159Z,40.70
2018-12-14T00:54:30.292Z,38.60
2018-12-14T00:57:11.862Z,37.70
2018-12-14T00:59:54.063Z,38.42
2018-12-14T01:02:35.287Z,38.90
2018-12-14T01:05:16.727Z,40.12
2018-12-14T01:07:58.343Z,43.25
2018-12-14T01:10:40.537Z,40.25
2018-12-14T01:13:22.925Z,43.35
2018-12-14T01:16:04.633Z,43.95
2018-12-14T01:18:45.882Z,39.18
2018-12-14T01:21:28.492Z,42.70
2018-12-14T01:24:10.148Z,40.88
2018-12-14T01:26:51.342Z,37.15
2018-12-14T01:29:32.634Z,40.78
2018-12-14T01:32:14.375Z,41.17
2018-12-14T01:34:55.736Z,39.97
2018-12-14T01:37:37.968Z,42.30
2018-12-14T01:40:19.652Z,41.42
2018-12-14T01:43:01.141Z,38.70
2018-12-14T01:45:43.200Z,39.80
2018-12-14T01:48:25.961Z,39.73
2018-12-14T01:51:07.149Z,41.42
2018-12-14T01:53:48.528Z,37.53
2018-12-14T01:56:29.737Z,43.23
2018-12-14T01:59:11.489Z,39.10
2018-12-14T02:01:53.359Z,35.30
2018-12-14T02:04:34.960Z,41.70
2018-12-14T02:07:16.406Z,45.55
2018-12-14T02:09:57.644Z,39.20
2018-12-14T02:12:38.958Z,42.57
2018-12-14T02:15:20.860Z,38.53
2018-12-14T02:18:02.407Z,41.47
2018-12-14T02:20:44.121Z,38.37
2018-12-14T02:23:25.792Z,35.37
2018-12-14T02:26:07.760Z,42.80
2018-12-14T02:28:50.141Z,41.33
2018-12-14T02:31:31.588Z,39.83
2018-12-14T02:34:12.859Z,39.97
2018-12-14T02:36:54.410Z,45.95
2018-12-14T02:39:36.150Z,37.40
2018-12-14T02:42:19.346Z,37.03
2018-12-14T02:45:01.728Z,38.60
2018-12-14T02:47:43.137Z,41.40
2018-12-14T02:50:25.331Z,36.80
2018-12-14T02:53:07.089Z,38.83
2018-12-14T02:55:48.860Z,41.90
2018-12-14T02:58:31.572Z,41.28
2018-12-14T03:01:13.535Z,40.47
2018-12-14T03:03:55.186Z,42.90
2018-12-14T03:06:36.565Z,36.47
2018-12-14T03:09:17.767Z,40.77
2018-12-14T03:11:58.967Z,40.37
2018-12-14T03:14:41.933Z,34.53
2018-12-14T03:17:24.401Z,42.97
2018-12-14T03:20:08.438Z,40.60
2018-12-14T03:22:50.310Z,41.27
2018-12-14T03:25:33.015Z,38.75
2018-12-14T03:28:15.015Z,41.00
2018-12-14T03:30:57.253Z,39.93
2018-12-14T03:33:38.976Z,40.33
2018-12-14T03:36:21.277Z,41.40
2018-12-14T03:39:04.482Z,40.10
2018-12-14T03:41:47.832Z,36.50
2018-12-14T03:44:29.148Z,37.63
2018-12-14T03:47:12.754Z,39.67
2018-12-14T03:49:54.721Z,40.43
2018-12-14T03:52:36.869Z,41.25
2018-12-14T03:55:20.199Z,41.85
2018-12-14T03:58:02.744Z,40.98
2018-12-14T04:00:45.171Z,41.40
2018-12-14T04:03:26.699Z,37.77
2018-12-14T04:06:08.094Z,40.50
2018-12-14T04:08:49.632Z,40.03
2018-12-14T04:11:30.912Z,44.93
2018-12-14T04:14:12.168Z,37.00
2018-12-14T04:16:53.620Z,42.98
2018-12-14T04:19:35.439Z,39.17
2018-12-14T04:22:17.084Z,38.73
2018-12-14T04:24:58.779Z,36.83
2018-12-14T04:27:41.093Z,38.28
2018-12-14T04:30:23.236Z,39.63
2018-12-14T04:33:05.956Z,39.42
2018-12-14T04:35:47.702Z,41.80
2018-12-14T04:38:30.625Z,38.63
2018-12-14T04:41:12.604Z,43.25
2018-12-14T04:43:54.440Z,36.10
2018-12-14T04:46:36.382Z,44.08
2018-12-14T04:49:18.697Z,46.33
2018-12-14T04:52:02.492Z,40.08
2018-12-14T04:54:44.260Z,38.98
2018-12-14T04:57:26.354Z,41.53
2018-12-14T05:00:09.361Z,42.03
2018-12-14T05:02:51.684Z,47.20
2018-12-14T05:05:33.751Z,42.08
2018-12-14T05:08:16.268Z,39.42
2018-12-14T05:10:58.898Z,42.27
2018-12-14T05:13:40.859Z,41.90
2018-12-14T05:16:22.481Z,42.27
2018-12-14T05:19:05.045Z,46.53
2018-12-14T05:21:47.168Z,40.60
2018-12-14T05:24:28.803Z,47.63
2018-12-14T05:27:10.777Z,43.60
2018-12-14T05:29:53.568Z,46.28
2018-12-14T05:32:37.168Z,48.65
2018-12-14T05:35:19.817Z,47.17
2018-12-14T05:38:01.709Z,43.78
2018-12-14T05:40:46.194Z,43.93
2018-12-14T05:43:27.782Z,47.13
2018-12-14T05:46:10.313Z,43.52
2018-12-14T05:48:53.467Z,46.30
2018-12-14T05:51:36.139Z,39.40
2018-12-14T05:54:18.056Z,42.13
2018-12-14T05:56:59.927Z,42.03
2018-12-14T05:59:42.342Z,39.38
2018-12-14T06:02:24.073Z,42.48
2018-12-14T06:05:06.503Z,40.48
2018-12-14T06:07:47.615Z,43.03
2018-12-14T06:10:29.392Z,46.05
2018-12-14T06:13:11.039Z,46.00
2018-12-14T06:15:53.404Z,43.37
2018-12-14T06:18:35.321Z,46.53
2018-12-14T06:21:17.025Z,44.00
2018-12-14T06:23:59.868Z,45.67
2018-12-14T06:26:41.569Z,43.33
2018-12-14T06:29:23.060Z,42.10
2018-12-14T06:32:05.542Z,46.08
2018-12-14T06:34:47.081Z,42.85
2018-12-14T06:37:29.249Z,48.35
2018-12-14T06:40:12.185Z,40.80
2018-12-14T06:42:54.588Z,39.95
2018-12-14T06:45:36.241Z,45.60
2018-12-14T06:48:18.862Z,48.23
2018-12-14T06:51:01.415Z,40.65
2018-12-14T06:53:43.640Z,46.03
2018-12-14T06:56:24.999Z,45.95
2018-12-14T06:59:07.425Z,42.65
2018-12-14T07:01:49.154Z,50.33
2018-12-14T07:04:30.426Z,42.73
2018-12-14T07:07:12.486Z,47.17
2018-12-14T07:09:54.316Z,43.17
2018-12-14T07:12:37.034Z,44.13
2018-12-14T07:15:19.236Z,47.13
2018-12-14T07:18:00.633Z,42.38
2018-12-14T07:20:43.059Z,44.67
2018-12-14T07:23:24.723Z,46.00
2018-12-14T07:26:06.813Z,47.53
2018-12-14T07:28:48.312Z,44.13
2018-12-14T07:31:31.122Z,44.08
2018-12-14T07:34:13.229Z,42.30
2018-12-14T07:36:55.124Z,49.98
2018-12-14T07:39:36.855Z,45.30
2018-12-14T07:42:18.675Z,43.40
2018-12-14T07:45:00.515Z,50.60
2018-12-14T07:47:42.129Z,55.35
2018-12-14T07:50:24.273Z,44.45
2018-12-14T07:53:09.108Z,46.75
2018-12-14T07:55:50.007Z,44.17
2018-12-14T07:58:31.822Z,42.07
2018-12-14T08:01:13.934Z,39.85
2018-12-14T08:03:55.113Z,39.75
2018-12-14T08:06:36.407Z,45.77
2018-12-14T08:09:18.253Z,40.03
2018-12-14T08:11:59.489Z,39.58
2018-12-14T08:14:41.612Z,45.10
2018-12-14T08:17:22.994Z,38.85
2018-12-14T08:20:05.275Z,36.63
2018-12-14T08:22:46.654Z,33.40
2018-12-14T08:25:28.256Z,34.40
2018-12-14T08:28:09.749Z,35.35
2018-12-14T08:30:52.189Z,36.98
2018-12-14T08:33:33.574Z,34.25
2018-12-14T08:36:15.046Z,36.83
2018-12-14T08:38:56.516Z,33.47
2018-12-14T08:41:38.875Z,35.78
2018-12-14T08:44:21.567Z,38.78
2018-12-14T08:47:04.101Z,36.38
2018-12-14T08:49:46.338Z,32.90
2018-12-14T08:52:28.959Z,38.48
2018-12-14T08:55:10.843Z,37.80
2018-12-14T08:57:52.299Z,40.98
2018-12-14T09:00:34.433Z,44.65
2018-12-14T09:03:15.971Z,41.88
2018-12-14T09:05:57.681Z,36.80
2018-12-14T09:08:40.018Z,37.65
2018-12-14T09:11:21.163Z,34.88
2018-12-14T09:14:02.970Z,38.30
2018-12-14T09:16:44.548Z,37.70
2018-12-14T09:19:26.004Z,37.60
2018-12-14T09:22:08.043Z,34.63
2018-12-14T09:24:49.916Z,36.15
2018-12-14T09:27:34.139Z,36.93
2018-12-14T09:30:15.715Z,33.50
2018-12-14T09:32:57.670Z,43.80
2018-12-14T09:35:40.163Z,37.40
2018-12-14T09:38:21.815Z,38.05
2018-12-14T09:41:03.344Z,37.00
2018-12-14T09:43:44.945Z,34.33
2018-12-14T09:46:26.560Z,33.65
2018-12-14T09:49:09.256Z,36.03
2018-12-14T09:51:50.867Z,35.70
2018-12-14T09:54:33.011Z,33.88
2018-12-14T09:57:14.259Z,35.35
2018-12-14T09:59:55.485Z,34.40
2018-12-14T10:02:37.434Z,32.75
2018-12-14T10:05:19.671Z,33.90
2018-12-14T10:08:05.667Z,36.65
2018-12-14T10:10:47.726Z,35.00
2018-12-14T10:13:29.338Z,31.73
2018-12-14T10:16:12.316Z,35.08
2018-12-14T10:18:54.525Z,33.18
2018-12-14T10:21:36.935Z,31.75
2018-12-14T10:24:19.220Z,31.48
2018-12-14T10:27:07.425Z,36.15
2018-12-14T10:29:49.376Z,33.92
2018-12-14T10:32:31.664Z,31.12
2018-12-14T10:35:13.703Z,35.25
2018-12-14T10:37:56.564Z,40.70
2018-12-14T10:40:39.420Z,33.83
2018-12-14T10:43:21.725Z,29.48
2018-12-14T10:46:05.636Z,25.30
2018-12-14T10:48:47.078Z,27.65
2018-12-14T10:51:29.162Z,35.13
2018-12-14T10:54:11.878Z,31.20
2018-12-14T10:56:54.426Z,30.77
2018-12-14T10:59:36.237Z,31.68
2018-12-14T11:02:19.002Z,29.65
2018-12-14T11:05:00.685Z,30.77
2018-12-14T11:07:42.600Z,28.98
2018-12-14T11:10:25.259Z,32.73
2018-12-14T11:13:07.459Z,36.03
2018-12-14T11:15:49.895Z,30.02
2018-12-14T11:18:31.863Z,28.32
2018-12-14T11:21:13.867Z,30.60
2018-12-14T11:23:55.869Z,30.35
2018-12-14T11:26:38.106Z,29.15
2018-12-14T11:29:20.974Z,28.83
2018-12-14T11:32:02.912Z,30.70
2018-12-14T11:34:44.611Z,35.33
2018-12-14T11:37:26.703Z,34.35
2018-12-14T11:40:09.722Z,34.30
2018-12-14T11:42:52.046Z,33.08
2018-12-14T11:45:33.968Z,30.65
2018-12-14T11:48:15.749Z,31.62
2018-12-14T11:50:57.543Z,35.03
2018-12-14T11:53:40.137Z,31.75
2018-12-14T11:56:21.511Z,29.55
2018-12-14T11:59:03.627Z,34.50
2018-12-14T12:01:45.525Z,29.52
2018-12-14T12:04:27.863Z,35.92
2018-12-14T12:07:10.080Z,32.15
2018-12-14T12:09:52.089Z,32.42
2018-12-14T12:12:34.315Z,33.67
2018-12-14T12:15:16.198Z,31.57
2018-12-14T12:17:58.497Z,36.23
2018-12-14T12:20:40.266Z,30.05
2018-12-14T12:23:21.580Z,38.00
2018-12-14T12:26:04.317Z,30.68
2018-12-14T12:28:46.534Z,36.10
2018-12-14T12:31:29.091Z,31.45
2018-12-14T12:34:11.239Z,31.52
2018-12-14T12:36:52.998Z,28.23
2018-12-14T12:39:34.809Z,31.12
2018-12-14T12:42:17.375Z,26.80
2018-12-14T12:44:58.559Z,29.92
2018-12-14T12:47:41.086Z,25.27
2018-12-14T12:50:23.782Z,32.25
2018-12-14T12:53:06.028Z,28.73
2018-12-14T12:55:48.157Z,31.80
2018-12-14T12:58:31.148Z,34.38
2018-12-14T13:01:13.238Z,30.25
2018-12-14T13:03:55.499Z,30.90
2018-12-14T13:06:39.475Z,29.67
2018-12-14T13:09:21.205Z,29.30
2018-12-14T13:12:03.088Z,30.92
2018-12-14T13:14:44.308Z,30.77
2018-12-14T13:17:26.180Z,29.85
2018-12-14T13:20:09.101Z,33.25
2018-12-14T13:22:51.517Z,33.33
2018-12-14T13:25:33.292Z,27.75
2018-12-14T13:28:15.340Z,34.58
2018-12-14T13:30:57.057Z,30.85
2018-12-14T13:33:38.773Z,28.87
2018-12-14T13:36:20.774Z,28.20
2018-12-14T13:39:02.075Z,29.40
2018-12-14T13:41:44.957Z,33.28
2018-12-14T13:44:27.140Z,38.48
2018-12-14T13:47:08.758Z,35.45
2018-12-14T13:49:49.988Z,33.90
2018-12-14T13:52:31.733Z,34.00
2018-12-14T13:55:13.246Z,31.90
2018-12-14T13:58:02.134Z,30.10
2018-12-14T14:00:45.718Z,33.75
2018-12-14T14:03:27.815Z,31.62
2018-12-14T14:06:09.448Z,32.63
2018-12-14T14:08:50.658Z,32.73
2018-12-14T14:11:31.988Z,36.83
2018-12-14T14:14:14.012Z,32.05
2018-12-14T14:16:56.589Z,38.80
2018-12-14T14:19:38.853Z,32.40
2018-12-14T14:22:20.551Z,31.75
2018-12-14T14:25:03.661Z,34.13
2018-12-14T14:27:45.199Z,33.97
2018-12-14T14:30:27.086Z,28.30
2018-12-14T14:33:08.332Z,31.37
2018-12-14T14:35:49.974Z,31.33
2018-12-14T14:38:32.229Z,37.08
2018-12-14T14:41:13.857Z,29.95
2018-12-14T14:43:56.012Z,28.73
2018-12-14T14:46:37.695Z,34.00
2018-12-14T14:49:19.415Z,35.28
2018-12-14T14:52:01.363Z,26.17
2018-12-14T14:54:42.530Z,33.53
2018-12-14T14:57:25.939Z,31.55
2018-12-14T15:00:09.296Z,33.18
2018-12-14T15:02:51.579Z,35.50
2018-12-14T15:05:34.176Z,35.55
2018-12-14T15:08:16.069Z,35.83
2018-12-14T15:10:57.712Z,36.60
2018-12-14T15:13:39.420Z,42.35
2018-12-14T15:16:21.587Z,40.25
2018-12-14T15:19:06.598Z,41.20
2018-12-14T15:21:48.983Z,38.60
2018-12-14T15:24:31.043Z,42.67
2018-12-14T15:27:12.827Z,44.85
2018-12-14T15:29:54.108Z,42.98
2018-12-14T15:32:35.505Z,41.00
2018-12-14T15:35:17.417Z,45.98
2018-12-14T15:37:59.109Z,42.70
2018-12-14T15:40:40.782Z,42.55
2018-12-14T15:43:22.503Z,43.98
2018-12-14T15:46:04.786Z,44.53
2018-12-14T15:48:46.481Z,40.15
2018-12-14T15:51:28.189Z,48.25
2018-12-14T15:54:09.839Z,46.15
2018-12-14T15:56:51.442Z,48.52
2018-12-14T15:59:33.654Z,45.40
2018-12-14T16:02:14.953Z,49.93
2018-12-14T16:04:56.476Z,45.80
2018-12-14T16:07:38.290Z,51.88
2018-12-14T16:10:20.359Z,52.60
2018-12-14T16:13:02.426Z,50.15
2018-12-14T16:15:44.902Z,51.98
2018-12-14T16:18:26.695Z,58.10
2018-12-14T16:21:08.097Z,66.53
2018-12-14T16:23:50.532Z,50.28
2018-12-14T16:26:32.792Z,51.53
2018-12-14T16:29:14.421Z,51.75
2018-12-14T16:31:56.543Z,45.85
2018-12-14T16:34:38.748Z,46.97
2018-12-14T16:37:21.152Z,53.40
2018-12-14T16:40:02.953Z,44.50
2018-12-14T16:42:45.807Z,49.27
2018-12-14T16:45:27.113Z,51.92
2018-12-14T16:48:09.275Z,50.70
2018-12-14T16:50:51.035Z,48.97
2018-12-14T16:53:37.256Z,54.73
2018-12-14T16:56:18.586Z,52.63
2018-12-14T16:59:01.303Z,53.02
2018-12-14T17:01:43.741Z,50.83
2018-12-14T17:04:25.303Z,54.40
2018-12-14T17:07:07.571Z,47.95
2018-12-14T17:09:49.694Z,49.80
2018-12-14T17:12:31.373Z,45.73
2018-12-14T17:15:15.214Z,47.70
2018-12-14T17:17:59.122Z,48.08
2018-12-14T17:20:40.640Z,52.70
2018-12-14T17:23:22.167Z,48.40
2018-12-14T17:26:03.477Z,53.17
2018-12-14T17:28:44.757Z,43.63
2018-12-14T17:31:26.839Z,53.97
2018-12-14T17:34:08.657Z,53.23
2018-12-14T17:36:50.608Z,49.15
2018-12-14T17:39:33.932Z,47.73
2018-12-14T17:42:15.833Z,51.17
2018-12-14T17:44:58.034Z,52.73
2018-12-14T17:47:39.316Z,48.53
2018-12-14T17:50:20.882Z,49.13
2018-12-14T17:53:02.204Z,54.93
2018-12-14T17:55:44.254Z,44.90
2018-12-14T17:58:26.031Z,48.90
2018-12-14T18:01:08.281Z,47.58
2018-12-14T18:03:52.562Z,54.08
2018-12-14T18:06:34.895Z,49.83
2018-12-14T18:09:16.296Z,46.92
2018-12-14T18:11:58.375Z,48.07
2018-12-14T18:14:41.345Z,48.68
2018-12-14T18:17:22.807Z,51.58
2018-12-14T18:20:05.313Z,55.78
2018-12-14T18:22:47.559Z,54.33
2018-12-14T18:28:13.642Z,51.15
2018-12-14T18:30:56.412Z,52.90
2018-12-14T18:33:38.286Z,44.65
2018-12-14T18:36:20.208Z,53.37
2018-12-14T18:39:01.893Z,48.53
2018-12-14T18:41:44.465Z,51.30
2018-12-14T18:44:25.897Z,43.95
2018-12-14T18:47:08.228Z,51.50
2018-12-14T18:49:50.545Z,44.17
2018-12-14T18:52:33.254Z,46.33
2018-12-14T18:55:15.229Z,43.78
2018-12-14T18:57:58.143Z,48.50
2018-12-14T19:00:40.379Z,42.67
2018-12-14T19:03:22.144Z,43.80
2018-12-14T19:06:05.345Z,50.55
2018-12-14T19:08:47.129Z,48.02
2018-12-14T19:11:29.186Z,46.03
2018-12-14T19:14:11.497Z,42.55
2018-12-14T19:16:53.051Z,40.65
2018-12-14T19:19:34.978Z,42.43
2018-12-14T19:22:16.984Z,40.95
2018-12-14T19:24:58.347Z,44.13
2018-12-14T19:27:39.687Z,43.70
2018-12-14T19:30:21.343Z,42.62
2018-12-14T19:33:03.098Z,38.27
2018-12-14T19:35:45.149Z,41.42
2018-12-14T19:38:26.715Z,39.70
2018-12-14T19:41:08.079Z,39.40
2018-12-14T19:43:49.724Z,38.65
2018-12-14T19:46:31.143Z,43.20
2018-12-14T19:49:12.375Z,40.40
2018-12-14T19:51:54.508Z,40.30
2018-12-14T19:54:37.014Z,41.95
2018-12-14T19:57:19.017Z,38.55
2018-12-14T20:00:00.835Z,38.28
2018-12-14T20:02:42.936Z,40.55
2018-12-14T20:08:08.678Z,39.23
2018-12-14T20:10:50.587Z,37.42
2018-12-14T20:13:33.124Z,38.23
2018-12-14T20:16:14.752Z,38.53
2018-12-14T20:18:55.988Z,42.88
2018-12-14T20:21:37.490Z,48.28
2018-12-14T20:24:18.696Z,41.37
2018-12-14T20:27:00.320Z,39.23
2018-12-14T20:29:41.901Z,39.90
2018-12-14T20:32:24.099Z,40.90
2018-12-14T20:35:07.313Z,38.70
2018-12-14T20:37:49.492Z,36.07
2018-12-14T20:40:31.022Z,37.15
2018-12-14T20:43:13.411Z,40.40
2018-12-14T20:45:55.355Z,38.40
2018-12-14T20:48:37.211Z,38.20
2018-12-14T20:51:18.667Z,36.38
2018-12-14T20:54:00.843Z,37.38
2018-12-14T20:56:43.002Z,39.58
2018-12-14T20:59:25.736Z,36.33
2018-12-14T21:02:07.946Z,38.17
2018-12-14T21:04:49.372Z,40.03
2018-12-14T21:07:31.566Z,32.67
2018-12-14T21:10:13.460Z,39.63
2018-12-14T21:12:55.729Z,45.28
2018-12-14T21:15:37.808Z,39.27
2018-12-14T21:18:19.432Z,38.77
2018-12-14T21:21:02.073Z,35.92
2018-12-14T21:23:44.179Z,35.73
2018-12-14T21:26:25.485Z,36.67
2018-12-14T21:29:07.659Z,38.30
2018-12-14T21:31:49.554Z,36.80
2018-12-14T21:34:31.019Z,37.50
2018-12-14T21:37:12.778Z,35.40
2018-12-14T21:39:54.626Z,36.50
2018-12-14T21:42:36.391Z,35.63
2018-12-14T21:45:17.950Z,36.70
2018-12-14T21:48:00.701Z,36.42
2018-12-14T21:50:43.276Z,31.82
2018-12-14T21:53:25.226Z,34.13
2018-12-14T21:56:06.821Z,27.93
2018-12-14T21:58:48.587Z,31.95
2018-12-14T22:01:31.364Z,28.63
2018-12-14T22:04:13.574Z,26.77
2018-12-14T22:06:54.733Z,29.43
2018-12-14T22:09:35.950Z,27.90
2018-12-14T22:12:17.726Z,29.50
2018-12-14T22:14:59.562Z,38.27
2018-12-14T22:17:40.766Z,30.23
2018-12-14T22:20:22.048Z,22.17
2018-12-14T22:23:03.672Z,27.13
2018-12-14T22:25:44.965Z,26.07
2018-12-14T22:28:26.212Z,28.32
2018-12-14T22:31:09.503Z,28.83
2018-12-14T22:33:50.923Z,26.17
2018-12-14T22:36:34.220Z,28.37
2018-12-14T22:39:15.452Z,25.48
2018-12-14T22:41:57.790Z,27.15
2018-12-14T22:44:39.400Z,25.57
2018-12-14T22:47:22.166Z,25.60
2018-12-14T22:50:05.397Z,26.17
2018-12-14T22:52:46.618Z,27.00
2018-12-14T22:55:27.840Z,30.27
2018-12-14T22:58:09.922Z,27.37
2018-12-14T23:00:53.441Z,22.82
2018-12-14T23:03:35.134Z,29.37
2018-12-14T23:06:17.137Z,22.23
2018-12-14T23:08:58.513Z,24.20
2018-12-14T23:11:39.851Z,27.33
2018-12-14T23:14:21.130Z,28.33
2018-12-14T23:17:03.806Z,29.32
2018-12-14T23:19:46.182Z,33.55
2018-12-14T23:22:30.614Z,33.40
2018-12-14T23:25:12.373Z,32.93
2018-12-14T23:27:54.324Z,34.45
2018-12-14T23:30:36.406Z,33.50
2018-12-14T23:33:18.740Z,32.17
2018-12-14T23:36:00.231Z,33.53
2018-12-14T23:38:41.514Z,34.43
2018-12-14T23:41:23.474Z,29.30
2018-12-14T23:44:06.022Z,31.10
2018-12-14T23:46:47.287Z,32.30
2018-12-14T23:49:29.304Z,32.58
2018-12-14T23:52:11.163Z,30.62
2018-12-14T23:54:54.104Z,31.97
2018-12-14T23:57:35.665Z,31.97
